sensor_id;sensor_type;location;lat;lon;timestamp;pressure;altitude;pressure_sealevel;temperature;humidity
15308;BME280;7755;52.208;6.964;2022-08-07T00:02:58;102275.38;;;15.45;84.03
15308;BME280;7755;52.208;6.964;2022-08-07T00:07:01;102264.63;;;15.32;84.62
15308;BME280;7755;52.208;6.964;2022-08-07T00:11:03;102260.19;;;15.19;84.92
15308;BME280;7755;52.208;6.964;2022-08-07T00:15:07;102265.59;;;15.08;85.68
15308;BME280;7755;52.208;6.964;2022-08-07T00:19:11;102263.34;;;15.05;85.88
15308;BME280;7755;52.208;6.964;2022-08-07T00:23:15;102256.16;;;15.03;85.76
15308;BME280;7755;52.208;6.964;2022-08-07T00:27:17;102258.06;;;15.03;86.09
15308;BME280;7755;52.208;6.964;2022-08-07T00:31:20;102250.94;;;15.02;86.25
15308;BME280;7755;52.208;6.964;2022-08-07T00:35:27;102254.25;;;14.92;86.17
15308;BME280;7755;52.208;6.964;2022-08-07T00:39:29;102247.94;;;14.73;87.29
15308;BME280;7755;52.208;6.964;2022-08-07T00:43:31;102248.88;;;14.67;87.23
15308;BME280;7755;52.208;6.964;2022-08-07T00:47:37;102251.44;;;14.62;87.47
15308;BME280;7755;52.208;6.964;2022-08-07T00:51:42;102244.38;;;14.55;88.00
15308;BME280;7755;52.208;6.964;2022-08-07T00:55:44;102244.16;;;14.38;89.11
15308;BME280;7755;52.208;6.964;2022-08-07T00:59:47;102246.81;;;14.26;89.35
15308;BME280;7755;52.208;6.964;2022-08-07T01:03:49;102238.44;;;14.21;90.00
15308;BME280;7755;52.208;6.964;2022-08-07T01:07:55;102238.00;;;14.24;89.82
15308;BME280;7755;52.208;6.964;2022-08-07T01:11:58;102237.75;;;14.26;89.63
15308;BME280;7755;52.208;6.964;2022-08-07T01:16:03;102240.34;;;14.20;89.75
15308;BME280;7755;52.208;6.964;2022-08-07T01:20:08;102239.13;;;14.16;89.90
15308;BME280;7755;52.208;6.964;2022-08-07T01:24:15;102237.66;;;14.14;90.38
15308;BME280;7755;52.208;6.964;2022-08-07T01:28:18;102239.56;;;14.13;90.42
15308;BME280;7755;52.208;6.964;2022-08-07T01:32:24;102234.16;;;14.07;90.10
15308;BME280;7755;52.208;6.964;2022-08-07T01:36:28;102228.34;;;14.03;90.50
15308;BME280;7755;52.208;6.964;2022-08-07T01:40:36;102231.50;;;14.00;90.28
15308;BME280;7755;52.208;6.964;2022-08-07T01:44:41;102228.41;;;13.97;90.82
15308;BME280;7755;52.208;6.964;2022-08-07T01:48:50;102227.75;;;13.94;90.86
15308;BME280;7755;52.208;6.964;2022-08-07T01:52:59;102229.66;;;13.94;90.51
15308;BME280;7755;52.208;6.964;2022-08-07T01:57:08;102230.31;;;13.96;90.71
15308;BME280;7755;52.208;6.964;2022-08-07T02:01:14;102220.41;;;13.95;90.77
15308;BME280;7755;52.208;6.964;2022-08-07T02:05:22;102213.06;;;13.96;91.42
15308;BME280;7755;52.208;6.964;2022-08-07T02:09:28;102213.25;;;13.94;91.67
15308;BME280;7755;52.208;6.964;2022-08-07T02:13:38;102215.16;;;13.93;92.43
15308;BME280;7755;52.208;6.964;2022-08-07T02:17:42;102204.44;;;13.92;92.38
15308;BME280;7755;52.208;6.964;2022-08-07T02:21:45;102212.88;;;13.90;92.95
15308;BME280;7755;52.208;6.964;2022-08-07T02:25:49;102207.66;;;13.89;93.37
15308;BME280;7755;52.208;6.964;2022-08-07T02:29:56;102200.72;;;13.86;93.83
15308;BME280;7755;52.208;6.964;2022-08-07T02:34:07;102195.25;;;13.86;93.77
15308;BME280;7755;52.208;6.964;2022-08-07T02:38:15;102204.16;;;13.82;93.72
15308;BME280;7755;52.208;6.964;2022-08-07T02:42:18;102198.50;;;13.77;94.32
15308;BME280;7755;52.208;6.964;2022-08-07T02:46:29;102198.75;;;13.75;94.60
15308;BME280;7755;52.208;6.964;2022-08-07T02:50:33;102200.63;;;13.75;94.83
15308;BME280;7755;52.208;6.964;2022-08-07T02:54:40;102194.13;;;13.76;94.68
15308;BME280;7755;52.208;6.964;2022-08-07T02:58:43;102195.38;;;13.73;94.89
15308;BME280;7755;52.208;6.964;2022-08-07T03:02:49;102192.03;;;13.71;95.43
15308;BME280;7755;52.208;6.964;2022-08-07T03:06:55;102189.53;;;13.70;95.16
15308;BME280;7755;52.208;6.964;2022-08-07T03:11:00;102191.44;;;13.69;95.33
15308;BME280;7755;52.208;6.964;2022-08-07T03:15:16;102196.06;;;13.69;95.19
15308;BME280;7755;52.208;6.964;2022-08-07T03:19:22;102197.34;;;13.66;95.44
15308;BME280;7755;52.208;6.964;2022-08-07T03:23:26;102196.75;;;13.64;95.19
15308;BME280;7755;52.208;6.964;2022-08-07T03:27:31;102204.78;;;13.59;95.76
15308;BME280;7755;52.208;6.964;2022-08-07T03:31:37;102204.16;;;13.57;95.97
15308;BME280;7755;52.208;6.964;2022-08-07T03:35:44;102202.69;;;13.54;95.59
15308;BME280;7755;52.208;6.964;2022-08-07T03:39:49;102200.03;;;13.48;95.77
15308;BME280;7755;52.208;6.964;2022-08-07T03:43:51;102201.91;;;13.47;95.76
15308;BME280;7755;52.208;6.964;2022-08-07T03:47:56;102209.56;;;13.38;95.83
15308;BME280;7755;52.208;6.964;2022-08-07T03:52:02;102206.84;;;13.38;96.05
15308;BME280;7755;52.208;6.964;2022-08-07T03:56:09;102199.69;;;13.37;96.29
15308;BME280;7755;52.208;6.964;2022-08-07T04:00:14;102206.22;;;13.36;96.41
15308;BME280;7755;52.208;6.964;2022-08-07T04:04:21;102210.03;;;13.35;96.72
15308;BME280;7755;52.208;6.964;2022-08-07T04:08:29;102210.44;;;13.32;96.85
15308;BME280;7755;52.208;6.964;2022-08-07T04:12:31;102208.19;;;13.29;96.94
15308;BME280;7755;52.208;6.964;2022-08-07T04:16:34;102207.34;;;13.29;97.55
15308;BME280;7755;52.208;6.964;2022-08-07T04:20:38;102213.00;;;13.27;97.35
15308;BME280;7755;52.208;6.964;2022-08-07T04:24:43;102209.44;;;13.27;97.61
15308;BME280;7755;52.208;6.964;2022-08-07T04:28:48;102210.91;;;13.29;97.82
15308;BME280;7755;52.208;6.964;2022-08-07T04:32:55;102208.19;;;13.29;97.87
15308;BME280;7755;52.208;6.964;2022-08-07T04:37:01;102216.97;;;13.31;97.86
15308;BME280;7755;52.208;6.964;2022-08-07T04:41:08;102204.97;;;13.32;97.46
15308;BME280;7755;52.208;6.964;2022-08-07T04:45:14;102209.38;;;13.33;97.39
15308;BME280;7755;52.208;6.964;2022-08-07T04:49:29;102211.69;;;13.36;97.80
15308;BME280;7755;52.208;6.964;2022-08-07T04:53:41;102208.13;;;13.36;97.77
15308;BME280;7755;52.208;6.964;2022-08-07T04:57:50;102220.72;;;13.37;98.05
15308;BME280;7755;52.208;6.964;2022-08-07T05:01:59;102231.00;;;13.42;98.38
15308;BME280;7755;52.208;6.964;2022-08-07T05:06:07;102228.09;;;13.36;99.51
15308;BME280;7755;52.208;6.964;2022-08-07T05:10:13;102223.69;;;13.35;99.60
15308;BME280;7755;52.208;6.964;2022-08-07T05:14:24;102224.66;;;13.41;99.32
15308;BME280;7755;52.208;6.964;2022-08-07T05:18:32;102225.25;;;13.50;99.26
15308;BME280;7755;52.208;6.964;2022-08-07T05:22:37;102229.00;;;13.55;99.38
15308;BME280;7755;52.208;6.964;2022-08-07T05:26:43;102235.06;;;13.57;99.42
15308;BME280;7755;52.208;6.964;2022-08-07T05:30:50;102232.09;;;13.59;99.36
15308;BME280;7755;52.208;6.964;2022-08-07T05:34:53;102232.03;;;13.65;99.66
15308;BME280;7755;52.208;6.964;2022-08-07T05:38:58;102234.34;;;13.69;99.64
15308;BME280;7755;52.208;6.964;2022-08-07T05:43:02;102238.28;;;13.73;100.00
15308;BME280;7755;52.208;6.964;2022-08-07T05:47:07;102236.78;;;13.77;100.00
15308;BME280;7755;52.208;6.964;2022-08-07T05:51:10;102230.44;;;13.83;100.00
15308;BME280;7755;52.208;6.964;2022-08-07T05:55:15;102243.03;;;13.84;100.00
15308;BME280;7755;52.208;6.964;2022-08-07T05:59:20;102237.94;;;13.87;100.00
15308;BME280;7755;52.208;6.964;2022-08-07T06:03:30;102242.06;;;13.97;100.00
15308;BME280;7755;52.208;6.964;2022-08-07T06:07:34;102243.50;;;13.99;100.00
15308;BME280;7755;52.208;6.964;2022-08-07T06:11:37;102240.34;;;14.02;100.00
15308;BME280;7755;52.208;6.964;2022-08-07T06:15:41;102248.69;;;14.07;100.00
15308;BME280;7755;52.208;6.964;2022-08-07T06:20:00;102245.38;;;14.24;100.00
15308;BME280;7755;52.208;6.964;2022-08-07T06:24:06;102248.03;;;14.48;100.00
15308;BME280;7755;52.208;6.964;2022-08-07T06:28:09;102254.41;;;14.79;100.00
15308;BME280;7755;52.208;6.964;2022-08-07T06:32:12;102256.56;;;15.07;99.75
15308;BME280;7755;52.208;6.964;2022-08-07T06:36:17;102252.38;;;15.46;99.39
15308;BME280;7755;52.208;6.964;2022-08-07T06:40:33;102246.63;;;16.01;97.65
15308;BME280;7755;52.208;6.964;2022-08-07T06:44:38;102239.41;;;16.47;95.92
15308;BME280;7755;52.208;6.964;2022-08-07T06:48:42;102236.63;;;16.99;93.95
15308;BME280;7755;52.208;6.964;2022-08-07T06:52:52;102237.63;;;17.55;91.03
15308;BME280;7755;52.208;6.964;2022-08-07T06:56:58;102228.34;;;18.12;86.54
15308;BME280;7755;52.208;6.964;2022-08-07T07:01:09;102232.19;;;18.54;84.79
15308;BME280;7755;52.208;6.964;2022-08-07T07:05:13;102243.28;;;19.03;81.59
15308;BME280;7755;52.208;6.964;2022-08-07T07:09:21;102232.16;;;19.52;78.75
15308;BME280;7755;52.208;6.964;2022-08-07T07:13:28;102233.56;;;19.87;76.17
15308;BME280;7755;52.208;6.964;2022-08-07T07:17:38;102229.28;;;20.11;73.15
15308;BME280;7755;52.208;6.964;2022-08-07T07:21:46;102230.09;;;20.54;70.74
15308;BME280;7755;52.208;6.964;2022-08-07T07:25:53;102229.56;;;20.72;69.37
15308;BME280;7755;52.208;6.964;2022-08-07T07:30:21;102227.75;;;21.09;66.63
15308;BME280;7755;52.208;6.964;2022-08-07T07:34:27;102226.09;;;21.23;65.01
15308;BME280;7755;52.208;6.964;2022-08-07T07:38:31;102230.84;;;21.53;64.87
15308;BME280;7755;52.208;6.964;2022-08-07T07:42:37;102222.25;;;21.95;62.23
15308;BME280;7755;52.208;6.964;2022-08-07T07:46:40;102211.59;;;22.43;60.72
15308;BME280;7755;52.208;6.964;2022-08-07T07:50:45;102217.47;;;22.91;57.44
15308;BME280;7755;52.208;6.964;2022-08-07T07:54:49;102217.34;;;23.11;55.83
15308;BME280;7755;52.208;6.964;2022-08-07T07:58:54;102212.50;;;23.27;53.20
15308;BME280;7755;52.208;6.964;2022-08-07T08:03:08;102209.25;;;23.49;53.08
15308;BME280;7755;52.208;6.964;2022-08-07T08:07:16;102215.28;;;23.56;52.36
15308;BME280;7755;52.208;6.964;2022-08-07T08:11:31;102213.03;;;23.63;52.13
15308;BME280;7755;52.208;6.964;2022-08-07T08:15:38;102205.56;;;23.88;49.88
15308;BME280;7755;52.208;6.964;2022-08-07T08:19:42;102206.13;;;24.14;48.73
15308;BME280;7755;52.208;6.964;2022-08-07T08:23:45;102207.69;;;24.25;47.66
15308;BME280;7755;52.208;6.964;2022-08-07T08:28:08;102199.22;;;24.59;48.11
15308;BME280;7755;52.208;6.964;2022-08-07T08:32:20;102197.75;;;24.99;47.68
15308;BME280;7755;52.208;6.964;2022-08-07T08:36:26;102197.88;;;25.13;45.33
15308;BME280;7755;52.208;6.964;2022-08-07T08:40:31;102204.56;;;25.12;45.28
15308;BME280;7755;52.208;6.964;2022-08-07T08:44:40;102199.78;;;25.31;44.21
15308;BME280;7755;52.208;6.964;2022-08-07T08:48:50;102189.88;;;25.58;44.05
15308;BME280;7755;52.208;6.964;2022-08-07T08:53:02;102189.06;;;25.71;42.74
15308;BME280;7755;52.208;6.964;2022-08-07T08:57:12;102182.97;;;26.16;41.28
15308;BME280;7755;52.208;6.964;2022-08-07T09:01:29;102183.84;;;26.38;39.50
15308;BME280;7755;52.208;6.964;2022-08-07T09:05:39;102177.16;;;26.53;39.24
15308;BME280;7755;52.208;6.964;2022-08-07T09:09:52;102181.91;;;26.89;38.20
15308;BME280;7755;52.208;6.964;2022-08-07T09:14:06;102173.72;;;27.06;38.45
15308;BME280;7755;52.208;6.964;2022-08-07T09:18:41;102172.16;;;27.00;38.75
15308;BME280;7755;52.208;6.964;2022-08-07T09:22:59;102179.06;;;27.16;37.36
15308;BME280;7755;52.208;6.964;2022-08-07T09:27:15;102177.53;;;27.10;37.65
15308;BME280;7755;52.208;6.964;2022-08-07T09:31:36;102177.19;;;27.34;36.18
15308;BME280;7755;52.208;6.964;2022-08-07T09:35:46;102173.41;;;27.61;36.91
15308;BME280;7755;52.208;6.964;2022-08-07T09:40:00;102167.25;;;28.13;35.79
15308;BME280;7755;52.208;6.964;2022-08-07T09:44:10;102163.81;;;28.24;35.22
15308;BME280;7755;52.208;6.964;2022-08-07T09:48:30;102160.38;;;28.19;35.30
15308;BME280;7755;52.208;6.964;2022-08-07T09:52:51;102155.16;;;28.43;35.69
15308;BME280;7755;52.208;6.964;2022-08-07T09:57:48;102144.00;;;28.61;34.81
15308;BME280;7755;52.208;6.964;2022-08-07T10:02:04;102138.56;;;28.55;34.41
15308;BME280;7755;52.208;6.964;2022-08-07T10:06:35;102137.72;;;28.38;34.83
15308;BME280;7755;52.208;6.964;2022-08-07T10:10:48;102136.25;;;28.49;34.83
15308;BME280;7755;52.208;6.964;2022-08-07T10:19:42;102128.31;;;29.37;33.98
15308;BME280;7755;52.208;6.964;2022-08-07T10:24:24;102128.34;;;29.29;34.21
15308;BME280;7755;52.208;6.964;2022-08-07T10:28:43;102121.63;;;28.95;33.13
15308;BME280;7755;52.208;6.964;2022-08-07T10:37:44;102119.28;;;28.37;34.51
15308;BME280;7755;52.208;6.964;2022-08-07T10:42:00;102118.44;;;28.27;34.04
15308;BME280;7755;52.208;6.964;2022-08-07T10:46:12;102109.22;;;28.18;34.66
15308;BME280;7755;52.208;6.964;2022-08-07T10:50:20;102102.69;;;28.40;33.97
15308;BME280;7755;52.208;6.964;2022-08-07T10:54:32;102101.38;;;28.81;34.33
15308;BME280;7755;52.208;6.964;2022-08-07T10:58:48;102101.34;;;28.90;33.93
15308;BME280;7755;52.208;6.964;2022-08-07T11:02:58;102097.75;;;28.80;33.05
